Capitol Logistics 2183

Operating for AJT



KSMF
Sacramento International Airport
Sacramento, California
KPHL
Philadelphia International Airport
Philadelphia, Pennsylvania

Activity Log

Date Flight Route Aircraft Duration
No Flights Yet

Route Details

Aircraft Information
Group: Boeing Common
Types: B752,B762,B763
Route Data
Demand: M
Distance: 2133nm
Duration: 4h 46m
Recm'd Route: SCTWN3 MACUS BAM J94 BFF J94 DBQ J94 OBK J584 CRL J34 DJB JST BOJID2
Origin Wx: KSMF 272153Z 20009KT 10SM BKN190 27/10 A2993 RMK AO2 SLP134 T02670100
Dest. Wx: KPHL 272154Z 18009KT 10SM FEW011 SCT110 OVC150 21/18 A2981 RMK AO2 RAE03 SLP095 P0000 T02110183
Notes:

Financial History
Total Freight: 0lbs
Average Load: 0lbs/flt
Fuel Used: 0lbs
Avg. Fuel Used: 0lbs/flt
Fuel Expense: $0
Avg. Fuel Expense: $0
Avg. Fuel Cost: $0/lbs
Total Gross Income: $0
Pilot Pay: $0
Total Expenses: $0
Total Revenue: $0
Average Revenue: $0